sensor_id;sensor_type;location;lat;lon;timestamp;P1;durP1;ratioP1;P2;durP2;ratioP2
75446;SDS011;64024;55.820;37.574;2023-04-24T00:02:04;6.00;;;4.18;;
75446;SDS011;64024;55.820;37.574;2023-04-24T00:04:31;5.80;;;4.13;;
75446;SDS011;64024;55.820;37.574;2023-04-24T00:06:57;6.65;;;4.35;;
75446;SDS011;64024;55.820;37.574;2023-04-24T00:09:25;7.47;;;4.35;;
75446;SDS011;64024;55.820;37.574;2023-04-24T00:11:51;5.72;;;4.65;;
75446;SDS011;64024;55.820;37.574;2023-04-24T00:14:17;12.00;;;6.40;;
75446;SDS011;64024;55.820;37.574;2023-04-24T00:16:43;7.82;;;5.00;;
75446;SDS011;64024;55.820;37.574;2023-04-24T00:19:09;10.95;;;4.80;;
75446;SDS011;64024;55.820;37.574;2023-04-24T00:24:01;7.53;;;4.75;;
75446;SDS011;64024;55.820;37.574;2023-04-24T00:26:27;4.85;;;4.07;;
75446;SDS011;64024;55.820;37.574;2023-04-24T00:28:53;6.30;;;4.70;;
75446;SDS011;64024;55.820;37.574;2023-04-24T00:31:18;8.77;;;5.47;;
75446;SDS011;64024;55.820;37.574;2023-04-24T00:33:44;10.13;;;5.57;;
75446;SDS011;64024;55.820;37.574;2023-04-24T00:36:10;7.30;;;4.90;;
75446;SDS011;64024;55.820;37.574;2023-04-24T00:38:36;8.55;;;5.40;;
75446;SDS011;64024;55.820;37.574;2023-04-24T00:41:02;8.95;;;5.38;;
75446;SDS011;64024;55.820;37.574;2023-04-24T00:43:27;6.18;;;4.47;;
75446;SDS011;64024;55.820;37.574;2023-04-24T00:45:53;15.20;;;6.85;;
75446;SDS011;64024;55.820;37.574;2023-04-24T00:48:20;9.75;;;6.25;;
75446;SDS011;64024;55.820;37.574;2023-04-24T00:50:47;8.25;;;6.43;;
75446;SDS011;64024;55.820;37.574;2023-04-24T00:53:12;9.88;;;5.68;;
75446;SDS011;64024;55.820;37.574;2023-04-24T00:55:38;6.70;;;5.40;;
75446;SDS011;64024;55.820;37.574;2023-04-24T00:58:04;7.75;;;5.53;;
75446;SDS011;64024;55.820;37.574;2023-04-24T01:00:30;7.85;;;5.32;;
75446;SDS011;64024;55.820;37.574;2023-04-24T01:02:57;6.93;;;5.60;;
75446;SDS011;64024;55.820;37.574;2023-04-24T01:05:27;8.35;;;6.05;;
75446;SDS011;64024;55.820;37.574;2023-04-24T01:07:53;8.60;;;5.68;;
75446;SDS011;64024;55.820;37.574;2023-04-24T01:10:18;7.18;;;5.82;;
75446;SDS011;64024;55.820;37.574;2023-04-24T01:12:45;8.65;;;6.03;;
75446;SDS011;64024;55.820;37.574;2023-04-24T01:15:11;6.82;;;6.00;;
75446;SDS011;64024;55.820;37.574;2023-04-24T01:17:37;8.13;;;6.07;;
75446;SDS011;64024;55.820;37.574;2023-04-24T01:20:03;8.95;;;6.28;;
75446;SDS011;64024;55.820;37.574;2023-04-24T01:22:30;9.30;;;6.80;;
75446;SDS011;64024;55.820;37.574;2023-04-24T01:24:58;9.20;;;5.78;;
75446;SDS011;64024;55.820;37.574;2023-04-24T01:27:24;6.70;;;5.72;;
75446;SDS011;64024;55.820;37.574;2023-04-24T01:29:49;8.48;;;5.82;;
75446;SDS011;64024;55.820;37.574;2023-04-24T01:34:43;10.05;;;6.35;;
75446;SDS011;64024;55.820;37.574;2023-04-24T01:37:09;8.10;;;5.60;;
75446;SDS011;64024;55.820;37.574;2023-04-24T01:39:35;12.10;;;7.60;;
75446;SDS011;64024;55.820;37.574;2023-04-24T01:42:01;10.05;;;7.13;;
75446;SDS011;64024;55.820;37.574;2023-04-24T01:44:30;8.27;;;6.75;;
75446;SDS011;64024;55.820;37.574;2023-04-24T01:46:56;8.82;;;6.13;;
75446;SDS011;64024;55.820;37.574;2023-04-24T01:49:22;9.18;;;6.53;;
75446;SDS011;64024;55.820;37.574;2023-04-24T01:51:48;9.82;;;6.45;;
75446;SDS011;64024;55.820;37.574;2023-04-24T01:54:13;7.20;;;5.88;;
75446;SDS011;64024;55.820;37.574;2023-04-24T01:56:42;12.02;;;7.25;;
75446;SDS011;64024;55.820;37.574;2023-04-24T01:59:11;10.55;;;6.80;;
75446;SDS011;64024;55.820;37.574;2023-04-24T02:01:38;9.00;;;7.32;;
75446;SDS011;64024;55.820;37.574;2023-04-24T02:04:04;11.25;;;6.82;;
75446;SDS011;64024;55.820;37.574;2023-04-24T02:06:31;9.13;;;6.53;;
75446;SDS011;64024;55.820;37.574;2023-04-24T02:08:58;9.02;;;7.07;;
75446;SDS011;64024;55.820;37.574;2023-04-24T02:11:24;8.48;;;6.65;;
75446;SDS011;64024;55.820;37.574;2023-04-24T02:13:50;9.95;;;6.82;;
75446;SDS011;64024;55.820;37.574;2023-04-24T02:16:16;10.02;;;7.13;;
75446;SDS011;64024;55.820;37.574;2023-04-24T02:18:42;7.13;;;6.40;;
75446;SDS011;64024;55.820;37.574;2023-04-24T02:21:09;8.70;;;6.63;;
75446;SDS011;64024;55.820;37.574;2023-04-24T02:23:35;7.45;;;6.47;;
75446;SDS011;64024;55.820;37.574;2023-04-24T02:26:01;7.93;;;6.70;;
75446;SDS011;64024;55.820;37.574;2023-04-24T02:28:27;9.43;;;6.75;;
75446;SDS011;64024;55.820;37.574;2023-04-24T02:30:53;8.35;;;7.18;;
75446;SDS011;64024;55.820;37.574;2023-04-24T02:33:19;8.70;;;7.30;;
75446;SDS011;64024;55.820;37.574;2023-04-24T02:35:44;11.52;;;7.20;;
75446;SDS011;64024;55.820;37.574;2023-04-24T02:38:10;8.70;;;6.75;;
75446;SDS011;64024;55.820;37.574;2023-04-24T02:40:36;8.73;;;6.90;;
75446;SDS011;64024;55.820;37.574;2023-04-24T02:43:02;10.27;;;6.70;;
75446;SDS011;64024;55.820;37.574;2023-04-24T02:45:27;8.77;;;6.53;;
75446;SDS011;64024;55.820;37.574;2023-04-24T02:47:53;10.00;;;6.90;;
75446;SDS011;64024;55.820;37.574;2023-04-24T02:50:19;8.90;;;7.45;;
75446;SDS011;64024;55.820;37.574;2023-04-24T02:52:44;9.50;;;8.07;;
75446;SDS011;64024;55.820;37.574;2023-04-24T02:55:10;7.55;;;6.65;;
75446;SDS011;64024;55.820;37.574;2023-04-24T02:57:36;8.25;;;7.35;;
75446;SDS011;64024;55.820;37.574;2023-04-24T03:00:02;9.18;;;7.93;;
75446;SDS011;64024;55.820;37.574;2023-04-24T03:02:28;8.15;;;7.10;;
75446;SDS011;64024;55.820;37.574;2023-04-24T03:04:54;8.15;;;6.75;;
75446;SDS011;64024;55.820;37.574;2023-04-24T03:07:20;8.88;;;7.65;;
75446;SDS011;64024;55.820;37.574;2023-04-24T03:09:46;9.43;;;6.70;;
75446;SDS011;64024;55.820;37.574;2023-04-24T03:12:13;11.73;;;7.50;;
75446;SDS011;64024;55.820;37.574;2023-04-24T03:14:38;9.88;;;7.47;;
75446;SDS011;64024;55.820;37.574;2023-04-24T03:17:04;8.05;;;6.20;;
75446;SDS011;64024;55.820;37.574;2023-04-24T03:19:30;9.68;;;7.53;;
75446;SDS011;64024;55.820;37.574;2023-04-24T03:21:55;9.20;;;7.30;;
75446;SDS011;64024;55.820;37.574;2023-04-24T03:24:21;9.65;;;7.22;;
75446;SDS011;64024;55.820;37.574;2023-04-24T03:26:47;9.40;;;7.25;;
75446;SDS011;64024;55.820;37.574;2023-04-24T03:29:13;10.48;;;7.18;;
75446;SDS011;64024;55.820;37.574;2023-04-24T03:31:39;9.07;;;6.78;;
75446;SDS011;64024;55.820;37.574;2023-04-24T03:34:04;7.88;;;7.07;;
75446;SDS011;64024;55.820;37.574;2023-04-24T03:36:30;11.55;;;7.80;;
75446;SDS011;64024;55.820;37.574;2023-04-24T03:38:56;9.20;;;8.07;;
75446;SDS011;64024;55.820;37.574;2023-04-24T03:41:22;8.13;;;7.32;;
75446;SDS011;64024;55.820;37.574;2023-04-24T03:43:48;9.25;;;7.85;;
75446;SDS011;64024;55.820;37.574;2023-04-24T03:46:14;8.70;;;7.68;;
75446;SDS011;64024;55.820;37.574;2023-04-24T03:48:40;9.40;;;7.45;;
75446;SDS011;64024;55.820;37.574;2023-04-24T03:51:06;9.60;;;7.80;;
75446;SDS011;64024;55.820;37.574;2023-04-24T03:53:31;9.13;;;7.95;;
75446;SDS011;64024;55.820;37.574;2023-04-24T03:55:57;10.77;;;8.38;;
75446;SDS011;64024;55.820;37.574;2023-04-24T03:58:22;9.95;;;7.15;;
75446;SDS011;64024;55.820;37.574;2023-04-24T04:00:48;8.85;;;7.07;;
75446;SDS011;64024;55.820;37.574;2023-04-24T04:03:14;10.18;;;7.72;;
75446;SDS011;64024;55.820;37.574;2023-04-24T04:05:40;11.25;;;7.45;;
75446;SDS011;64024;55.820;37.574;2023-04-24T04:08:06;11.40;;;8.63;;
75446;SDS011;64024;55.820;37.574;2023-04-24T04:10:32;11.40;;;7.20;;
75446;SDS011;64024;55.820;37.574;2023-04-24T04:12:57;8.43;;;7.25;;
75446;SDS011;64024;55.820;37.574;2023-04-24T04:15:23;8.55;;;6.97;;
75446;SDS011;64024;55.820;37.574;2023-04-24T04:17:49;10.30;;;7.13;;
75446;SDS011;64024;55.820;37.574;2023-04-24T04:20:15;9.32;;;6.97;;
75446;SDS011;64024;55.820;37.574;2023-04-24T04:22:40;9.88;;;7.55;;
75446;SDS011;64024;55.820;37.574;2023-04-24T04:25:06;6.68;;;5.97;;
75446;SDS011;64024;55.820;37.574;2023-04-24T04:27:33;7.43;;;6.43;;
75446;SDS011;64024;55.820;37.574;2023-04-24T04:29:59;9.10;;;7.03;;
75446;SDS011;64024;55.820;37.574;2023-04-24T04:32:33;10.02;;;7.03;;
75446;SDS011;64024;55.820;37.574;2023-04-24T04:35:02;9.63;;;7.28;;
75446;SDS011;64024;55.820;37.574;2023-04-24T04:37:34;9.52;;;7.55;;
75446;SDS011;64024;55.820;37.574;2023-04-24T04:40:00;8.05;;;7.18;;
75446;SDS011;64024;55.820;37.574;2023-04-24T04:42:31;8.50;;;7.18;;
75446;SDS011;64024;55.820;37.574;2023-04-24T04:44:57;8.88;;;7.45;;
75446;SDS011;64024;55.820;37.574;2023-04-24T04:47:23;9.32;;;6.97;;
75446;SDS011;64024;55.820;37.574;2023-04-24T04:49:50;9.45;;;7.10;;
75446;SDS011;64024;55.820;37.574;2023-04-24T04:52:19;8.85;;;7.50;;
75446;SDS011;64024;55.820;37.574;2023-04-24T04:54:44;10.68;;;7.68;;
75446;SDS011;64024;55.820;37.574;2023-04-24T04:57:11;9.32;;;7.20;;
75446;SDS011;64024;55.820;37.574;2023-04-24T04:59:37;8.35;;;6.93;;
75446;SDS011;64024;55.820;37.574;2023-04-24T05:02:02;8.52;;;7.28;;
75446;SDS011;64024;55.820;37.574;2023-04-24T05:04:29;9.00;;;7.28;;
75446;SDS011;64024;55.820;37.574;2023-04-24T05:06:55;10.15;;;7.13;;
75446;SDS011;64024;55.820;37.574;2023-04-24T05:09:21;9.40;;;7.25;;
75446;SDS011;64024;55.820;37.574;2023-04-24T05:11:47;9.65;;;8.18;;
75446;SDS011;64024;55.820;37.574;2023-04-24T05:14:13;8.93;;;7.13;;
75446;SDS011;64024;55.820;37.574;2023-04-24T05:16:38;8.52;;;7.72;;
75446;SDS011;64024;55.820;37.574;2023-04-24T05:19:05;9.88;;;6.55;;
75446;SDS011;64024;55.820;37.574;2023-04-24T05:21:31;8.43;;;6.95;;
75446;SDS011;64024;55.820;37.574;2023-04-24T05:23:57;8.85;;;7.30;;
75446;SDS011;64024;55.820;37.574;2023-04-24T05:26:23;7.82;;;7.00;;
75446;SDS011;64024;55.820;37.574;2023-04-24T05:28:48;8.52;;;7.47;;
75446;SDS011;64024;55.820;37.574;2023-04-24T05:31:15;11.73;;;7.50;;
75446;SDS011;64024;55.820;37.574;2023-04-24T05:33:42;8.30;;;7.25;;
75446;SDS011;64024;55.820;37.574;2023-04-24T05:36:08;8.77;;;6.55;;
75446;SDS011;64024;55.820;37.574;2023-04-24T05:38:34;11.05;;;7.47;;
75446;SDS011;64024;55.820;37.574;2023-04-24T05:41:00;9.90;;;7.43;;
75446;SDS011;64024;55.820;37.574;2023-04-24T05:43:26;9.98;;;7.35;;
75446;SDS011;64024;55.820;37.574;2023-04-24T05:45:52;9.80;;;7.55;;
75446;SDS011;64024;55.820;37.574;2023-04-24T05:48:18;9.75;;;7.40;;
75446;SDS011;64024;55.820;37.574;2023-04-24T05:50:44;9.85;;;7.50;;
75446;SDS011;64024;55.820;37.574;2023-04-24T05:53:10;9.80;;;6.97;;
75446;SDS011;64024;55.820;37.574;2023-04-24T05:55:36;8.60;;;7.03;;
75446;SDS011;64024;55.820;37.574;2023-04-24T05:58:02;10.30;;;7.35;;
75446;SDS011;64024;55.820;37.574;2023-04-24T06:00:28;13.07;;;7.78;;
75446;SDS011;64024;55.820;37.574;2023-04-24T06:02:54;8.77;;;6.45;;
75446;SDS011;64024;55.820;37.574;2023-04-24T06:05:20;10.73;;;8.23;;
75446;SDS011;64024;55.820;37.574;2023-04-24T06:07:46;9.70;;;8.52;;
75446;SDS011;64024;55.820;37.574;2023-04-24T06:12:38;11.18;;;6.93;;
75446;SDS011;64024;55.820;37.574;2023-04-24T06:15:05;11.20;;;9.48;;
75446;SDS011;64024;55.820;37.574;2023-04-24T06:17:32;9.55;;;8.63;;
75446;SDS011;64024;55.820;37.574;2023-04-24T06:19:58;10.93;;;8.75;;
75446;SDS011;64024;55.820;37.574;2023-04-24T06:22:24;9.63;;;8.63;;
75446;SDS011;64024;55.820;37.574;2023-04-24T06:24:49;10.27;;;8.90;;
75446;SDS011;64024;55.820;37.574;2023-04-24T06:27:15;12.32;;;8.90;;
75446;SDS011;64024;55.820;37.574;2023-04-24T06:29:40;10.40;;;8.55;;
75446;SDS011;64024;55.820;37.574;2023-04-24T06:32:06;9.88;;;7.70;;
75446;SDS011;64024;55.820;37.574;2023-04-24T06:34:32;8.93;;;7.28;;
75446;SDS011;64024;55.820;37.574;2023-04-24T06:36:59;10.07;;;7.55;;
75446;SDS011;64024;55.820;37.574;2023-04-24T06:39:25;10.70;;;9.07;;
75446;SDS011;64024;55.820;37.574;2023-04-24T06:41:51;10.38;;;8.18;;
75446;SDS011;64024;55.820;37.574;2023-04-24T06:44:16;9.50;;;7.70;;
75446;SDS011;64024;55.820;37.574;2023-04-24T06:46:42;11.90;;;7.70;;
75446;SDS011;64024;55.820;37.574;2023-04-24T06:49:09;12.90;;;7.68;;
75446;SDS011;64024;55.820;37.574;2023-04-24T06:51:34;14.07;;;8.32;;
75446;SDS011;64024;55.820;37.574;2023-04-24T06:54:00;9.13;;;6.53;;
75446;SDS011;64024;55.820;37.574;2023-04-24T06:56:26;10.98;;;7.20;;
75446;SDS011;64024;55.820;37.574;2023-04-24T06:58:53;10.02;;;6.68;;
75446;SDS011;64024;55.820;37.574;2023-04-24T07:01:19;10.68;;;7.40;;
75446;SDS011;64024;55.820;37.574;2023-04-24T07:03:45;9.05;;;7.07;;
75446;SDS011;64024;55.820;37.574;2023-04-24T07:06:10;7.18;;;6.20;;
75446;SDS011;64024;55.820;37.574;2023-04-24T07:08:37;17.95;;;6.97;;
75446;SDS011;64024;55.820;37.574;2023-04-24T07:11:03;12.18;;;6.38;;
75446;SDS011;64024;55.820;37.574;2023-04-24T07:13:29;9.93;;;6.95;;
75446;SDS011;64024;55.820;37.574;2023-04-24T07:15:55;11.32;;;6.50;;
75446;SDS011;64024;55.820;37.574;2023-04-24T07:18:21;8.88;;;6.82;;
75446;SDS011;64024;55.820;37.574;2023-04-24T07:20:47;7.80;;;5.85;;
75446;SDS011;64024;55.820;37.574;2023-04-24T07:23:15;9.90;;;6.55;;
75446;SDS011;64024;55.820;37.574;2023-04-24T07:25:41;6.95;;;5.60;;
75446;SDS011;64024;55.820;37.574;2023-04-24T07:28:07;8.25;;;6.25;;
75446;SDS011;64024;55.820;37.574;2023-04-24T07:30:33;6.28;;;5.15;;
75446;SDS011;64024;55.820;37.574;2023-04-24T07:32:59;7.72;;;5.78;;
75446;SDS011;64024;55.820;37.574;2023-04-24T07:35:25;8.88;;;5.75;;
75446;SDS011;64024;55.820;37.574;2023-04-24T07:37:54;7.75;;;5.20;;
75446;SDS011;64024;55.820;37.574;2023-04-24T07:40:20;14.18;;;6.50;;
75446;SDS011;64024;55.820;37.574;2023-04-24T07:42:47;7.07;;;5.25;;
75446;SDS011;64024;55.820;37.574;2023-04-24T07:45:14;9.10;;;6.75;;
75446;SDS011;64024;55.820;37.574;2023-04-24T07:47:43;7.57;;;5.88;;
75446;SDS011;64024;55.820;37.574;2023-04-24T07:50:10;10.13;;;6.07;;
75446;SDS011;64024;55.820;37.574;2023-04-24T07:52:37;7.90;;;5.97;;
75446;SDS011;64024;55.820;37.574;2023-04-24T07:55:03;7.05;;;5.68;;
75446;SDS011;64024;55.820;37.574;2023-04-24T07:57:29;7.25;;;5.00;;
75446;SDS011;64024;55.820;37.574;2023-04-24T07:59:55;7.63;;;5.43;;
75446;SDS011;64024;55.820;37.574;2023-04-24T08:02:21;9.50;;;6.25;;
75446;SDS011;64024;55.820;37.574;2023-04-24T08:04:51;10.82;;;7.25;;
75446;SDS011;64024;55.820;37.574;2023-04-24T08:07:20;9.45;;;5.95;;
75446;SDS011;64024;55.820;37.574;2023-04-24T08:09:45;7.15;;;6.40;;
75446;SDS011;64024;55.820;37.574;2023-04-24T08:12:11;7.50;;;5.85;;
75446;SDS011;64024;55.820;37.574;2023-04-24T08:14:37;8.32;;;4.07;;
75446;SDS011;64024;55.820;37.574;2023-04-24T08:17:03;7.32;;;5.45;;
75446;SDS011;64024;55.820;37.574;2023-04-24T08:19:28;6.60;;;4.35;;
75446;SDS011;64024;55.820;37.574;2023-04-24T08:21:54;8.38;;;4.00;;
75446;SDS011;64024;55.820;37.574;2023-04-24T08:24:20;4.70;;;4.20;;
75446;SDS011;64024;55.820;37.574;2023-04-24T08:26:47;7.50;;;4.22;;
75446;SDS011;64024;55.820;37.574;2023-04-24T08:29:15;5.40;;;4.30;;
75446;SDS011;64024;55.820;37.574;2023-04-24T08:31:41;4.78;;;3.97;;
75446;SDS011;64024;55.820;37.574;2023-04-24T08:34:07;7.43;;;5.15;;
75446;SDS011;64024;55.820;37.574;2023-04-24T08:36:32;7.95;;;5.03;;
75446;SDS011;64024;55.820;37.574;2023-04-24T08:38:58;5.55;;;4.85;;
75446;SDS011;64024;55.820;37.574;2023-04-24T08:41:25;5.57;;;4.68;;
75446;SDS011;64024;55.820;37.574;2023-04-24T08:43:52;8.98;;;5.35;;
75446;SDS011;64024;55.820;37.574;2023-04-24T08:46:20;7.30;;;4.95;;
75446;SDS011;64024;55.820;37.574;2023-04-24T08:48:46;5.80;;;4.22;;
75446;SDS011;64024;55.820;37.574;2023-04-24T08:51:13;6.57;;;5.28;;
75446;SDS011;64024;55.820;37.574;2023-04-24T08:53:41;8.15;;;5.10;;
75446;SDS011;64024;55.820;37.574;2023-04-24T08:56:06;8.05;;;6.13;;
75446;SDS011;64024;55.820;37.574;2023-04-24T08:58:32;7.63;;;5.43;;
75446;SDS011;64024;55.820;37.574;2023-04-24T09:00:58;7.63;;;5.28;;
75446;SDS011;64024;55.820;37.574;2023-04-24T09:03:26;6.90;;;5.65;;
75446;SDS011;64024;55.820;37.574;2023-04-24T09:05:53;7.72;;;4.50;;
75446;SDS011;64024;55.820;37.574;2023-04-24T09:10:49;7.38;;;4.80;;
75446;SDS011;64024;55.820;37.574;2023-04-24T09:13:15;9.80;;;4.55;;
75446;SDS011;64024;55.820;37.574;2023-04-24T09:15:42;5.68;;;4.72;;
75446;SDS011;64024;55.820;37.574;2023-04-24T09:18:07;7.97;;;5.68;;
75446;SDS011;64024;55.820;37.574;2023-04-24T09:20:33;9.05;;;5.05;;
75446;SDS011;64024;55.820;37.574;2023-04-24T09:23:01;5.32;;;4.35;;
75446;SDS011;64024;55.820;37.574;2023-04-24T09:25:36;4.75;;;4.07;;
75446;SDS011;64024;55.820;37.574;2023-04-24T09:28:02;5.78;;;4.80;;
75446;SDS011;64024;55.820;37.574;2023-04-24T09:30:29;5.15;;;4.50;;
75446;SDS011;64024;55.820;37.574;2023-04-24T09:33:15;8.80;;;5.15;;
75446;SDS011;64024;55.820;37.574;2023-04-24T09:35:51;8.32;;;5.00;;
75446;SDS011;64024;55.820;37.574;2023-04-24T09:38:17;8.70;;;4.70;;
75446;SDS011;64024;55.820;37.574;2023-04-24T09:40:42;10.07;;;4.05;;
75446;SDS011;64024;55.820;37.574;2023-04-24T09:43:11;6.65;;;5.82;;
75446;SDS011;64024;55.820;37.574;2023-04-24T09:45:38;6.90;;;4.95;;
75446;SDS011;64024;55.820;37.574;2023-04-24T09:48:05;6.57;;;5.15;;
75446;SDS011;64024;55.820;37.574;2023-04-24T09:50:35;10.02;;;4.95;;
75446;SDS011;64024;55.820;37.574;2023-04-24T09:53:02;5.50;;;4.97;;
75446;SDS011;64024;55.820;37.574;2023-04-24T09:55:32;9.65;;;4.63;;
75446;SDS011;64024;55.820;37.574;2023-04-24T09:57:58;8.15;;;4.80;;
75446;SDS011;64024;55.820;37.574;2023-04-24T10:00:32;6.88;;;4.78;;
75446;SDS011;64024;55.820;37.574;2023-04-24T10:03:00;6.20;;;5.47;;
75446;SDS011;64024;55.820;37.574;2023-04-24T10:05:32;5.95;;;5.30;;
75446;SDS011;64024;55.820;37.574;2023-04-24T10:08:03;4.95;;;4.45;;
75446;SDS011;64024;55.820;37.574;2023-04-24T10:10:34;5.63;;;4.88;;
75446;SDS011;64024;55.820;37.574;2023-04-24T10:13:03;5.40;;;4.82;;
75446;SDS011;64024;55.820;37.574;2023-04-24T10:15:29;7.72;;;5.05;;
75446;SDS011;64024;55.820;37.574;2023-04-24T10:17:57;7.55;;;5.47;;
75446;SDS011;64024;55.820;37.574;2023-04-24T10:20:25;7.32;;;5.90;;
75446;SDS011;64024;55.820;37.574;2023-04-24T10:22:52;6.90;;;5.68;;
75446;SDS011;64024;55.820;37.574;2023-04-24T10:25:29;7.00;;;5.78;;
75446;SDS011;64024;55.820;37.574;2023-04-24T10:27:56;7.05;;;5.43;;
75446;SDS011;64024;55.820;37.574;2023-04-24T10:30:25;8.05;;;5.15;;
75446;SDS011;64024;55.820;37.574;2023-04-24T10:32:52;5.25;;;4.75;;
75446;SDS011;64024;55.820;37.574;2023-04-24T10:35:18;7.60;;;4.93;;
75446;SDS011;64024;55.820;37.574;2023-04-24T10:37:50;6.38;;;5.60;;
75446;SDS011;64024;55.820;37.574;2023-04-24T10:40:32;4.93;;;4.43;;
75446;SDS011;64024;55.820;37.574;2023-04-24T10:43:01;6.70;;;4.97;;
75446;SDS011;64024;55.820;37.574;2023-04-24T10:45:31;10.27;;;4.63;;
75446;SDS011;64024;55.820;37.574;2023-04-24T10:47:58;6.47;;;4.28;;
75446;SDS011;64024;55.820;37.574;2023-04-24T10:52:55;6.25;;;4.38;;
75446;SDS011;64024;55.820;37.574;2023-04-24T10:58:08;6.13;;;4.80;;
75446;SDS011;64024;55.820;37.574;2023-04-24T11:00:38;6.47;;;5.07;;
75446;SDS011;64024;55.820;37.574;2023-04-24T11:03:22;9.95;;;5.30;;
75446;SDS011;64024;55.820;37.574;2023-04-24T11:06:06;8.00;;;4.45;;
75446;SDS011;64024;55.820;37.574;2023-04-24T11:11:14;6.22;;;4.80;;
75446;SDS011;64024;55.820;37.574;2023-04-24T11:18:50;9.55;;;4.90;;
75446;SDS011;64024;55.820;37.574;2023-04-24T11:21:33;9.07;;;4.60;;
75446;SDS011;64024;55.820;37.574;2023-04-24T11:27:13;5.70;;;4.25;;
75446;SDS011;64024;55.820;37.574;2023-04-24T11:29:49;5.90;;;3.92;;
75446;SDS011;64024;55.820;37.574;2023-04-24T11:32:27;7.07;;;5.50;;
75446;SDS011;64024;55.820;37.574;2023-04-24T11:37:26;8.15;;;5.38;;
75446;SDS011;64024;55.820;37.574;2023-04-24T11:39:53;8.43;;;5.88;;
75446;SDS011;64024;55.820;37.574;2023-04-24T11:42:21;7.68;;;5.13;;
75446;SDS011;64024;55.820;37.574;2023-04-24T11:44:49;7.75;;;4.43;;
75446;SDS011;64024;55.820;37.574;2023-04-24T11:47:16;7.18;;;5.22;;
75446;SDS011;64024;55.820;37.574;2023-04-24T11:49:42;6.47;;;4.97;;
75446;SDS011;64024;55.820;37.574;2023-04-24T11:52:08;8.05;;;5.47;;
75446;SDS011;64024;55.820;37.574;2023-04-24T11:54:34;5.40;;;4.57;;
75446;SDS011;64024;55.820;37.574;2023-04-24T11:57:00;8.85;;;4.45;;
75446;SDS011;64024;55.820;37.574;2023-04-24T11:59:29;7.97;;;4.97;;
75446;SDS011;64024;55.820;37.574;2023-04-24T12:01:55;6.10;;;4.13;;
75446;SDS011;64024;55.820;37.574;2023-04-24T12:04:21;6.60;;;4.13;;
75446;SDS011;64024;55.820;37.574;2023-04-24T12:06:59;5.22;;;4.45;;
75446;SDS011;64024;55.820;37.574;2023-04-24T12:09:26;6.38;;;4.63;;
75446;SDS011;64024;55.820;37.574;2023-04-24T12:11:55;6.47;;;4.85;;
75446;SDS011;64024;55.820;37.574;2023-04-24T12:14:24;9.55;;;4.70;;
75446;SDS011;64024;55.820;37.574;2023-04-24T12:16:50;8.48;;;4.78;;
75446;SDS011;64024;55.820;37.574;2023-04-24T12:19:22;11.23;;;5.20;;
75446;SDS011;64024;55.820;37.574;2023-04-24T12:22:01;7.05;;;4.78;;
75446;SDS011;64024;55.820;37.574;2023-04-24T12:24:29;5.80;;;4.57;;
75446;SDS011;64024;55.820;37.574;2023-04-24T12:29:22;6.53;;;4.20;;
75446;SDS011;64024;55.820;37.574;2023-04-24T12:31:49;5.65;;;4.40;;
75446;SDS011;64024;55.820;37.574;2023-04-24T12:34:20;10.23;;;5.20;;
75446;SDS011;64024;55.820;37.574;2023-04-24T12:36:46;5.82;;;3.90;;
75446;SDS011;64024;55.820;37.574;2023-04-24T12:39:16;6.43;;;4.93;;
75446;SDS011;64024;55.820;37.574;2023-04-24T12:41:55;7.60;;;5.05;;
75446;SDS011;64024;55.820;37.574;2023-04-24T12:44:35;6.43;;;4.38;;
75446;SDS011;64024;55.820;37.574;2023-04-24T12:47:02;5.90;;;4.68;;
75446;SDS011;64024;55.820;37.574;2023-04-24T12:49:29;5.68;;;4.28;;
75446;SDS011;64024;55.820;37.574;2023-04-24T12:51:55;6.15;;;4.43;;
75446;SDS011;64024;55.820;37.574;2023-04-24T12:54:21;5.93;;;4.15;;
75446;SDS011;64024;55.820;37.574;2023-04-24T12:56:47;4.90;;;4.30;;
75446;SDS011;64024;55.820;37.574;2023-04-24T12:59:13;7.20;;;4.65;;
75446;SDS011;64024;55.820;37.574;2023-04-24T13:01:39;5.20;;;4.18;;
75446;SDS011;64024;55.820;37.574;2023-04-24T13:04:06;6.75;;;4.10;;
75446;SDS011;64024;55.820;37.574;2023-04-24T13:06:32;6.78;;;4.50;;
75446;SDS011;64024;55.820;37.574;2023-04-24T13:08:57;9.98;;;4.93;;
75446;SDS011;64024;55.820;37.574;2023-04-24T13:11:24;9.38;;;4.80;;
75446;SDS011;64024;55.820;37.574;2023-04-24T13:13:50;5.25;;;4.43;;
75446;SDS011;64024;55.820;37.574;2023-04-24T13:16:15;6.90;;;4.88;;
75446;SDS011;64024;55.820;37.574;2023-04-24T13:18:41;7.57;;;4.82;;
75446;SDS011;64024;55.820;37.574;2023-04-24T13:21:07;8.40;;;4.90;;
75446;SDS011;64024;55.820;37.574;2023-04-24T13:23:33;6.15;;;4.57;;
75446;SDS011;64024;55.820;37.574;2023-04-24T13:25:59;5.65;;;4.07;;
75446;SDS011;64024;55.820;37.574;2023-04-24T13:28:26;4.38;;;3.28;;
75446;SDS011;64024;55.820;37.574;2023-04-24T13:30:52;8.38;;;5.07;;
75446;SDS011;64024;55.820;37.574;2023-04-24T13:33:18;7.18;;;4.82;;
75446;SDS011;64024;55.820;37.574;2023-04-24T13:35:44;4.72;;;4.22;;
75446;SDS011;64024;55.820;37.574;2023-04-24T13:38:10;5.53;;;3.90;;
75446;SDS011;64024;55.820;37.574;2023-04-24T13:40:36;5.68;;;4.60;;
75446;SDS011;64024;55.820;37.574;2023-04-24T13:43:02;6.13;;;4.63;;
75446;SDS011;64024;55.820;37.574;2023-04-24T13:45:28;6.15;;;4.30;;
75446;SDS011;64024;55.820;37.574;2023-04-24T13:47:54;8.05;;;4.72;;
75446;SDS011;64024;55.820;37.574;2023-04-24T13:50:21;7.05;;;4.18;;
75446;SDS011;64024;55.820;37.574;2023-04-24T13:52:47;5.30;;;4.30;;
75446;SDS011;64024;55.820;37.574;2023-04-24T13:55:13;4.85;;;4.22;;
75446;SDS011;64024;55.820;37.574;2023-04-24T13:57:39;5.18;;;4.05;;
75446;SDS011;64024;55.820;37.574;2023-04-24T14:00:05;4.72;;;3.92;;
75446;SDS011;64024;55.820;37.574;2023-04-24T14:02:31;3.90;;;3.25;;
75446;SDS011;64024;55.820;37.574;2023-04-24T14:04:57;6.32;;;4.15;;
75446;SDS011;64024;55.820;37.574;2023-04-24T14:07:23;6.40;;;4.60;;
75446;SDS011;64024;55.820;37.574;2023-04-24T14:09:48;5.95;;;4.45;;
75446;SDS011;64024;55.820;37.574;2023-04-24T14:12:14;5.15;;;4.43;;
75446;SDS011;64024;55.820;37.574;2023-04-24T14:14:43;5.65;;;4.43;;
75446;SDS011;64024;55.820;37.574;2023-04-24T14:17:09;6.68;;;5.10;;
75446;SDS011;64024;55.820;37.574;2023-04-24T14:19:35;6.32;;;4.60;;
75446;SDS011;64024;55.820;37.574;2023-04-24T14:22:01;5.18;;;4.40;;
75446;SDS011;64024;55.820;37.574;2023-04-24T14:24:27;6.13;;;4.53;;
75446;SDS011;64024;55.820;37.574;2023-04-24T14:26:52;7.25;;;4.55;;
75446;SDS011;64024;55.820;37.574;2023-04-24T14:29:18;5.82;;;4.25;;
75446;SDS011;64024;55.820;37.574;2023-04-24T14:31:44;10.43;;;4.72;;
75446;SDS011;64024;55.820;37.574;2023-04-24T14:34:10;7.40;;;4.47;;
75446;SDS011;64024;55.820;37.574;2023-04-24T14:36:36;6.82;;;4.53;;
75446;SDS011;64024;55.820;37.574;2023-04-24T14:39:02;5.30;;;4.53;;
75446;SDS011;64024;55.820;37.574;2023-04-24T14:41:31;5.75;;;4.65;;
75446;SDS011;64024;55.820;37.574;2023-04-24T14:44:01;5.82;;;4.97;;
75446;SDS011;64024;55.820;37.574;2023-04-24T14:46:28;8.10;;;5.45;;
75446;SDS011;64024;55.820;37.574;2023-04-24T14:48:57;8.27;;;5.40;;
75446;SDS011;64024;55.820;37.574;2023-04-24T14:51:23;7.72;;;4.93;;
75446;SDS011;64024;55.820;37.574;2023-04-24T14:53:49;4.30;;;3.72;;
75446;SDS011;64024;55.820;37.574;2023-04-24T14:56:15;5.05;;;3.92;;
75446;SDS011;64024;55.820;37.574;2023-04-24T14:58:41;5.18;;;4.15;;
75446;SDS011;64024;55.820;37.574;2023-04-24T15:01:07;4.80;;;3.63;;
75446;SDS011;64024;55.820;37.574;2023-04-24T15:03:32;7.65;;;3.90;;